Aeroporto :







RITROVATECI SU...

 
LOGIN :

Iscrizione | Disclaimer

   EN    FR    IT 

 









Sommario :    VFR   VFR Marginale   IFR   IFR Intensivo   IFR Molto Intensivo
Visibilità : 
Base nubi : 
>= 8 km
>= 3000ft
5 / 8 km
1000 / 3000 ft
1500m / 5 km
500 / 1000 ft
800 / 1500m
200 / 500 ft
< 800m
< 200 ft
Simboli :   Temporali  Nebbia  Neve Forte  Precipitazioni Forti  Vento > 20 kt






- Altitudine del aeroporto : 1194 ft


KPSF - Pittsfield Municipal

ULTIMO METAR :
  • 221254Z AUTO VRB03KT 10SM OVC045 07/01 A2967 RMK AO2 PRESFR SLP050 T00720011

METARs OBSOLETI :
  • 221154Z AUTO 22009KT 10SM OVC050 07/01 A2972 RMK AO2 SLP065 60000 70001 T00670006 10067 20017 56017
  • 221054Z AUTO VRB03KT 10SM OVC050 07/01 A2973 RMK AO2 SLP072 T00670006

TAF KPSF
Valido dal 22 a 12 ore il 23 a 12 ore UTC


221121Z 2212/2312 20007KT P6SM VCSH OVC040
FM221500 23012G21KT P6SM SCT030 OVC040
TEMPO 2216/2219 5SM -SHRA BR OVC030
FM221900 29018G33KT P6SM BKN040
FM230300 29015G25KT P6SM FEW040
FM231000 29010KT P6SM SKC



MetMap, La meteo Aeronautica in un colpo d'occhio ! - Copyright ORBIFLY Dicembre 2007 - Disclaimer

ORBIFLY MET'MAP TEAM :

Programmazione e sviluppo : Alexandra Zaïnal
Concezione e sviluppo : Baudouin d'Aumeries
Co-Programmazione e sviluppo : Marc-Olivier Méhu
Supporto tecnico e logistico : Manuel Goepfert
Aiuto per la traduzione : Arnaldo La Scala

Contatto : metmap@orbifly.com




FONTI E CREDITI :

   NOAA